Terminal Aerodrome Forecast
Issued by NWS Upton, NY

Home | Current Version | Previous Version | Text Only | Print | Product List | Glossary On
Versions: 1 2 3 4 5 6 7 8 9 10 11 12 13 14 15 16 17 18 19 20 21 22 23 24 25 26 27 28
861
FTUS41 KOKX 120902 AAA
TAFLGA
TAF AMD
KLGA 120902Z 1209/1306 29012G20KT P6SM SKC
     FM121200 27010KT P6SM SCT250
     FM121700 24009KT P6SM FEW040 BKN130
     FM130200 26009KT P6SM FEW035 BKN040=

USA.gov is the U.S. government's official web portal to all federal, state and local government web resources and services.